sensor_id;sensor_type;location;lat;lon;timestamp;pressure;altitude;pressure_sealevel;temperature;humidity
19797;BME280;10058;57.654;12.044;2023-03-23T00:00:27;99398.09;;;6.76;100.00
19797;BME280;10058;57.654;12.044;2023-03-23T00:02:52;99417.16;;;6.68;100.00
19797;BME280;10058;57.654;12.044;2023-03-23T00:08:21;99407.69;;;6.74;100.00
19797;BME280;10058;57.654;12.044;2023-03-23T00:10:49;99406.72;;;6.69;100.00
19797;BME280;10058;57.654;12.044;2023-03-23T00:13:17;99402.16;;;6.62;100.00
19797;BME280;10058;57.654;12.044;2023-03-23T00:15:44;99398.56;;;6.57;100.00
19797;BME280;10058;57.654;12.044;2023-03-23T00:18:09;99405.94;;;6.73;100.00
19797;BME280;10058;57.654;12.044;2023-03-23T00:20:45;99403.09;;;6.64;100.00
19797;BME280;10058;57.654;12.044;2023-03-23T00:23:13;99409.47;;;6.75;100.00
19797;BME280;10058;57.654;12.044;2023-03-23T00:28:46;99360.03;;;6.54;100.00
19797;BME280;10058;57.654;12.044;2023-03-23T00:31:11;99391.88;;;6.71;100.00
19797;BME280;10058;57.654;12.044;2023-03-23T00:33:37;99395.47;;;6.76;100.00
19797;BME280;10058;57.654;12.044;2023-03-23T00:36:09;99388.53;;;6.80;100.00
19797;BME280;10058;57.654;12.044;2023-03-23T00:38:35;99377.19;;;6.81;100.00
19797;BME280;10058;57.654;12.044;2023-03-23T00:41:01;99389.25;;;6.71;100.00
19797;BME280;10058;57.654;12.044;2023-03-23T00:43:27;99390.47;;;6.88;100.00
19797;BME280;10058;57.654;12.044;2023-03-23T00:48:56;99389.75;;;6.97;100.00
19797;BME280;10058;57.654;12.044;2023-03-23T00:51:22;99392.13;;;6.83;100.00
19797;BME280;10058;57.654;12.044;2023-03-23T00:53:47;99388.13;;;7.02;100.00
19797;BME280;10058;57.654;12.044;2023-03-23T00:56:13;99383.69;;;6.99;100.00
19797;BME280;10058;57.654;12.044;2023-03-23T00:58:38;99387.38;;;7.11;100.00
19797;BME280;10058;57.654;12.044;2023-03-23T01:01:04;99392.84;;;7.20;100.00
19797;BME280;10058;57.654;12.044;2023-03-23T01:03:29;99381.53;;;7.24;100.00
19797;BME280;10058;57.654;12.044;2023-03-23T01:08:58;99392.78;;;7.17;100.00
19797;BME280;10058;57.654;12.044;2023-03-23T01:11:24;99392.97;;;7.26;100.00
19797;BME280;10058;57.654;12.044;2023-03-23T01:13:49;99383.25;;;7.22;100.00
19797;BME280;10058;57.654;12.044;2023-03-23T01:16:15;99388.69;;;7.32;100.00
19797;BME280;10058;57.654;12.044;2023-03-23T01:18:40;99387.66;;;7.23;100.00
19797;BME280;10058;57.654;12.044;2023-03-23T01:21:07;99389.56;;;7.33;100.00
19797;BME280;10058;57.654;12.044;2023-03-23T01:23:33;99386.00;;;7.29;100.00
19797;BME280;10058;57.654;12.044;2023-03-23T01:29:01;99373.81;;;7.33;100.00
19797;BME280;10058;57.654;12.044;2023-03-23T01:31:26;99377.53;;;7.44;100.00
19797;BME280;10058;57.654;12.044;2023-03-23T01:33:52;99362.31;;;7.28;100.00
19797;BME280;10058;57.654;12.044;2023-03-23T01:36:24;99360.56;;;7.27;100.00
19797;BME280;10058;57.654;12.044;2023-03-23T01:38:51;99371.75;;;7.17;100.00
19797;BME280;10058;57.654;12.044;2023-03-23T01:41:17;99377.00;;;7.17;100.00
19797;BME280;10058;57.654;12.044;2023-03-23T01:43:59;99367.44;;;7.20;100.00
19797;BME280;10058;57.654;12.044;2023-03-23T01:49:40;99356.19;;;7.29;100.00
19797;BME280;10058;57.654;12.044;2023-03-23T01:52:09;99348.00;;;7.12;100.00
19797;BME280;10058;57.654;12.044;2023-03-23T01:54:36;99350.59;;;7.11;100.00
19797;BME280;10058;57.654;12.044;2023-03-23T01:57:07;99352.22;;;7.03;100.00
19797;BME280;10058;57.654;12.044;2023-03-23T01:59:34;99366.16;;;6.98;100.00
19797;BME280;10058;57.654;12.044;2023-03-23T02:02:00;99359.25;;;7.04;100.00
19797;BME280;10058;57.654;12.044;2023-03-23T02:07:29;99349.59;;;7.03;100.00
19797;BME280;10058;57.654;12.044;2023-03-23T02:09:56;99351.53;;;7.13;100.00
19797;BME280;10058;57.654;12.044;2023-03-23T02:12:21;99348.78;;;7.05;100.00
19797;BME280;10058;57.654;12.044;2023-03-23T02:14:46;99346.16;;;7.05;100.00
19797;BME280;10058;57.654;12.044;2023-03-23T02:17:17;99336.81;;;7.21;100.00
19797;BME280;10058;57.654;12.044;2023-03-23T02:22:39;99322.91;;;7.28;100.00
19797;BME280;10058;57.654;12.044;2023-03-23T02:35:58;99308.38;;;7.50;100.00
19797;BME280;10058;57.654;12.044;2023-03-23T02:40:53;99303.09;;;7.48;100.00
19797;BME280;10058;57.654;12.044;2023-03-23T02:43:22;99286.69;;;7.64;100.00
19797;BME280;10058;57.654;12.044;2023-03-23T02:48:52;99263.88;;;7.62;100.00
19797;BME280;10058;57.654;12.044;2023-03-23T02:51:19;99259.50;;;7.61;100.00
19797;BME280;10058;57.654;12.044;2023-03-23T02:53:45;99260.13;;;7.46;100.00
19797;BME280;10058;57.654;12.044;2023-03-23T02:56:12;99255.72;;;7.45;100.00
19797;BME280;10058;57.654;12.044;2023-03-23T02:58:38;99253.94;;;7.41;100.00
19797;BME280;10058;57.654;12.044;2023-03-23T03:01:14;99250.28;;;7.33;100.00
19797;BME280;10058;57.654;12.044;2023-03-23T03:03:41;99246.00;;;7.38;100.00
19797;BME280;10058;57.654;12.044;2023-03-23T03:06:26;99252.00;;;7.31;100.00
19797;BME280;10058;57.654;12.044;2023-03-23T03:08:57;99257.22;;;7.29;100.00
19797;BME280;10058;57.654;12.044;2023-03-23T03:14:29;99253.91;;;7.40;100.00
19797;BME280;10058;57.654;12.044;2023-03-23T03:19:40;99249.28;;;7.25;100.00
19797;BME280;10058;57.654;12.044;2023-03-23T03:22:06;99252.19;;;7.42;100.00
19797;BME280;10058;57.654;12.044;2023-03-23T03:24:33;99244.50;;;7.55;100.00
19797;BME280;10058;57.654;12.044;2023-03-23T03:30:02;99232.31;;;7.60;100.00
19797;BME280;10058;57.654;12.044;2023-03-23T03:32:35;99233.19;;;7.62;100.00
19797;BME280;10058;57.654;12.044;2023-03-23T03:38:07;99230.63;;;7.65;100.00
19797;BME280;10058;57.654;12.044;2023-03-23T03:43:51;99228.91;;;7.67;100.00
19797;BME280;10058;57.654;12.044;2023-03-23T03:49:19;99230.66;;;7.68;100.00
19797;BME280;10058;57.654;12.044;2023-03-23T03:51:44;99220.16;;;7.68;100.00
19797;BME280;10058;57.654;12.044;2023-03-23T03:54:10;99221.81;;;7.63;100.00
19797;BME280;10058;57.654;12.044;2023-03-23T03:56:35;99235.81;;;7.59;100.00
19797;BME280;10058;57.654;12.044;2023-03-23T03:59:02;99233.94;;;7.52;100.00
19797;BME280;10058;57.654;12.044;2023-03-23T04:01:28;99234.09;;;7.61;100.00
19797;BME280;10058;57.654;12.044;2023-03-23T04:03:53;99230.56;;;7.59;100.00
19797;BME280;10058;57.654;12.044;2023-03-23T04:09:21;99217.41;;;7.59;100.00
19797;BME280;10058;57.654;12.044;2023-03-23T04:11:46;99218.31;;;7.61;100.00
19797;BME280;10058;57.654;12.044;2023-03-23T04:14:12;99213.13;;;7.67;100.00
19797;BME280;10058;57.654;12.044;2023-03-23T04:16:37;99214.81;;;7.61;100.00
19797;BME280;10058;57.654;12.044;2023-03-23T04:19:02;99204.16;;;7.53;100.00
19797;BME280;10058;57.654;12.044;2023-03-23T04:21:27;99208.50;;;7.51;100.00
19797;BME280;10058;57.654;12.044;2023-03-23T04:23:54;99205.94;;;7.54;100.00
19797;BME280;10058;57.654;12.044;2023-03-23T04:29:21;99202.28;;;7.43;100.00
19797;BME280;10058;57.654;12.044;2023-03-23T04:31:47;99206.59;;;7.40;100.00
19797;BME280;10058;57.654;12.044;2023-03-23T04:34:12;99209.31;;;7.44;100.00
19797;BME280;10058;57.654;12.044;2023-03-23T04:36:40;99192.53;;;7.38;100.00
19797;BME280;10058;57.654;12.044;2023-03-23T04:39:05;99199.53;;;7.37;100.00
19797;BME280;10058;57.654;12.044;2023-03-23T04:41:34;99195.31;;;7.48;100.00
19797;BME280;10058;57.654;12.044;2023-03-23T04:44:00;99196.16;;;7.46;100.00
19797;BME280;10058;57.654;12.044;2023-03-23T04:49:30;99186.69;;;7.57;100.00
19797;BME280;10058;57.654;12.044;2023-03-23T04:51:55;99165.53;;;7.49;100.00
19797;BME280;10058;57.654;12.044;2023-03-23T04:54:21;99173.47;;;7.52;100.00
19797;BME280;10058;57.654;12.044;2023-03-23T04:56:46;99163.66;;;7.39;100.00
19797;BME280;10058;57.654;12.044;2023-03-23T04:59:11;99161.72;;;7.26;100.00
19797;BME280;10058;57.654;12.044;2023-03-23T05:01:38;99162.50;;;7.20;100.00
19797;BME280;10058;57.654;12.044;2023-03-23T05:04:03;99153.66;;;7.15;100.00
19797;BME280;10058;57.654;12.044;2023-03-23T05:09:32;99172.25;;;7.29;100.00
19797;BME280;10058;57.654;12.044;2023-03-23T05:11:57;99174.03;;;7.30;100.00
19797;BME280;10058;57.654;12.044;2023-03-23T05:14:24;99161.03;;;7.39;100.00
19797;BME280;10058;57.654;12.044;2023-03-23T05:16:50;99163.72;;;7.42;100.00
19797;BME280;10058;57.654;12.044;2023-03-23T05:19:17;99158.47;;;7.44;100.00
19797;BME280;10058;57.654;12.044;2023-03-23T05:21:42;99159.28;;;7.40;100.00
19797;BME280;10058;57.654;12.044;2023-03-23T05:24:09;99167.06;;;7.33;100.00
19797;BME280;10058;57.654;12.044;2023-03-23T05:29:36;99166.97;;;7.27;100.00
19797;BME280;10058;57.654;12.044;2023-03-23T05:32:03;99165.22;;;7.28;100.00
19797;BME280;10058;57.654;12.044;2023-03-23T05:34:29;99168.88;;;7.36;100.00
19797;BME280;10058;57.654;12.044;2023-03-23T05:36:57;99163.56;;;7.33;100.00
19797;BME280;10058;57.654;12.044;2023-03-23T05:39:22;99166.16;;;7.31;100.00
19797;BME280;10058;57.654;12.044;2023-03-23T05:41:47;99136.06;;;7.08;100.00
19797;BME280;10058;57.654;12.044;2023-03-23T05:44:12;99167.25;;;7.44;100.00
19797;BME280;10058;57.654;12.044;2023-03-23T05:49:43;99156.91;;;7.56;100.00
19797;BME280;10058;57.654;12.044;2023-03-23T05:52:09;99149.81;;;7.52;100.00
19797;BME280;10058;57.654;12.044;2023-03-23T05:54:35;99151.63;;;7.55;100.00
19797;BME280;10058;57.654;12.044;2023-03-23T05:57:01;99160.44;;;7.58;100.00
19797;BME280;10058;57.654;12.044;2023-03-23T05:59:26;99152.47;;;7.54;100.00
19797;BME280;10058;57.654;12.044;2023-03-23T06:01:51;99159.59;;;7.61;100.00
19797;BME280;10058;57.654;12.044;2023-03-23T06:04:18;99168.38;;;7.61;100.00
19797;BME280;10058;57.654;12.044;2023-03-23T06:09:46;99155.22;;;7.61;100.00
19797;BME280;10058;57.654;12.044;2023-03-23T06:12:11;99158.66;;;7.57;100.00
19797;BME280;10058;57.654;12.044;2023-03-23T06:14:36;99158.72;;;7.60;100.00
19797;BME280;10058;57.654;12.044;2023-03-23T06:17:02;99153.47;;;7.63;100.00
19797;BME280;10058;57.654;12.044;2023-03-23T06:19:27;99148.28;;;7.69;100.00
19797;BME280;10058;57.654;12.044;2023-03-23T06:21:56;99143.09;;;7.73;100.00
19797;BME280;10058;57.654;12.044;2023-03-23T06:24:21;99145.84;;;7.83;100.00
19797;BME280;10058;57.654;12.044;2023-03-23T06:29:49;99130.91;;;7.81;100.00
19797;BME280;10058;57.654;12.044;2023-03-23T06:32:15;99087.88;;;7.73;100.00
19797;BME280;10058;57.654;12.044;2023-03-23T06:34:40;99119.69;;;7.95;100.00
19797;BME280;10058;57.654;12.044;2023-03-23T06:37:08;99109.44;;;8.20;100.00
19797;BME280;10058;57.654;12.044;2023-03-23T06:39:34;99099.72;;;8.14;100.00
19797;BME280;10058;57.654;12.044;2023-03-23T06:41:59;99107.69;;;8.22;100.00
19797;BME280;10058;57.654;12.044;2023-03-23T06:44:24;99098.06;;;8.22;100.00
19797;BME280;10058;57.654;12.044;2023-03-23T06:49:53;99097.81;;;8.01;100.00
19797;BME280;10058;57.654;12.044;2023-03-23T06:52:18;99099.81;;;8.23;100.00
19797;BME280;10058;57.654;12.044;2023-03-23T06:54:43;99101.47;;;8.15;100.00
19797;BME280;10058;57.654;12.044;2023-03-23T06:57:08;99096.25;;;8.18;100.00
19797;BME280;10058;57.654;12.044;2023-03-23T06:59:34;99096.47;;;8.38;100.00
19797;BME280;10058;57.654;12.044;2023-03-23T07:01:59;99078.06;;;8.40;100.00
19797;BME280;10058;57.654;12.044;2023-03-23T07:04:24;99075.44;;;8.40;100.00
19797;BME280;10058;57.654;12.044;2023-03-23T07:06:50;99075.53;;;8.52;100.00
19797;BME280;10058;57.654;12.044;2023-03-23T07:09:15;99065.81;;;8.43;100.00
19797;BME280;10058;57.654;12.044;2023-03-23T07:11:40;99069.38;;;8.47;100.00
19797;BME280;10058;57.654;12.044;2023-03-23T07:14:06;99066.75;;;8.47;100.00
19797;BME280;10058;57.654;12.044;2023-03-23T07:16:31;99057.94;;;8.45;100.00
19797;BME280;10058;57.654;12.044;2023-03-23T07:18:56;99054.38;;;8.40;100.00
19797;BME280;10058;57.654;12.044;2023-03-23T07:21:22;99063.22;;;8.45;100.00
19797;BME280;10058;57.654;12.044;2023-03-23T07:23:47;99046.53;;;8.44;100.00
19797;BME280;10058;57.654;12.044;2023-03-23T07:29:15;99044.91;;;8.60;100.00
19797;BME280;10058;57.654;12.044;2023-03-23T07:31:40;99047.63;;;8.72;100.00
19797;BME280;10058;57.654;12.044;2023-03-23T07:34:05;99048.47;;;8.71;100.00
19797;BME280;10058;57.654;12.044;2023-03-23T07:36:31;99049.38;;;8.73;100.00
19797;BME280;10058;57.654;12.044;2023-03-23T07:38:56;99040.66;;;8.80;100.00
19797;BME280;10058;57.654;12.044;2023-03-23T07:41:23;99036.31;;;8.88;100.00
19797;BME280;10058;57.654;12.044;2023-03-23T07:43:48;99028.44;;;8.91;100.00
19797;BME280;10058;57.654;12.044;2023-03-23T07:49:16;99022.50;;;9.32;100.00
19797;BME280;10058;57.654;12.044;2023-03-23T07:51:42;99020.75;;;9.37;100.00
19797;BME280;10058;57.654;12.044;2023-03-23T07:54:07;99016.34;;;9.36;100.00
19797;BME280;10058;57.654;12.044;2023-03-23T07:56:33;99011.97;;;9.36;100.00
19797;BME280;10058;57.654;12.044;2023-03-23T07:58:59;99004.13;;;9.53;100.00
19797;BME280;10058;57.654;12.044;2023-03-23T08:01:24;98998.03;;;9.75;100.00
19797;BME280;10058;57.654;12.044;2023-03-23T08:03:49;98988.41;;;9.87;100.00
19797;BME280;10058;57.654;12.044;2023-03-23T08:09:18;98969.03;;;9.82;100.00
19797;BME280;10058;57.654;12.044;2023-03-23T08:11:43;98964.72;;;10.20;100.00
19797;BME280;10058;57.654;12.044;2023-03-23T08:14:08;98954.16;;;10.20;100.00
19797;BME280;10058;57.654;12.044;2023-03-23T08:16:33;98947.97;;;10.18;100.00
19797;BME280;10058;57.654;12.044;2023-03-23T08:18:59;98956.75;;;10.08;100.00
19797;BME280;10058;57.654;12.044;2023-03-23T08:21:24;98949.72;;;10.25;100.00
19797;BME280;10058;57.654;12.044;2023-03-23T08:23:51;98954.13;;;10.00;100.00
19797;BME280;10058;57.654;12.044;2023-03-23T08:26:17;98969.03;;;9.89;100.00
19797;BME280;10058;57.654;12.044;2023-03-23T08:28:42;98977.84;;;9.84;100.00
19797;BME280;10058;57.654;12.044;2023-03-23T08:31:09;98980.47;;;9.84;100.00
19797;BME280;10058;57.654;12.044;2023-03-23T08:33:35;98995.44;;;9.85;100.00
19797;BME280;10058;57.654;12.044;2023-03-23T08:36:00;99000.66;;;9.72;100.00
19797;BME280;10058;57.654;12.044;2023-03-23T08:38:26;98997.16;;;9.80;100.00
19797;BME280;10058;57.654;12.044;2023-03-23T08:40:56;98998.94;;;9.81;100.00
19797;BME280;10058;57.654;12.044;2023-03-23T08:43:22;99009.44;;;9.65;100.00
19797;BME280;10058;57.654;12.044;2023-03-23T08:45:47;99009.38;;;9.53;100.00
19797;BME280;10058;57.654;12.044;2023-03-23T08:48:12;99018.25;;;9.67;100.00
19797;BME280;10058;57.654;12.044;2023-03-23T08:50:38;99009.50;;;9.81;100.00
19797;BME280;10058;57.654;12.044;2023-03-23T08:53:03;99003.28;;;9.60;100.00
19797;BME280;10058;57.654;12.044;2023-03-23T08:55:28;98997.13;;;9.64;100.00
19797;BME280;10058;57.654;12.044;2023-03-23T08:57:54;98993.69;;;9.85;100.00
19797;BME280;10058;57.654;12.044;2023-03-23T09:00:20;98968.19;;;10.18;100.00
19797;BME280;10058;57.654;12.044;2023-03-23T09:02:47;98947.06;;;10.43;100.00
19797;BME280;10058;57.654;12.044;2023-03-23T09:08:16;98914.28;;;11.18;100.00
19797;BME280;10058;57.654;12.044;2023-03-23T09:10:41;98887.75;;;11.30;100.00
19797;BME280;10058;57.654;12.044;2023-03-23T09:13:06;98881.66;;;11.20;100.00
19797;BME280;10058;57.654;12.044;2023-03-23T09:15:31;98868.47;;;11.15;100.00
19797;BME280;10058;57.654;12.044;2023-03-23T09:17:57;98821.06;;;10.79;100.00
19797;BME280;10058;57.654;12.044;2023-03-23T09:20:24;98784.28;;;10.30;100.00
19797;BME280;10058;57.654;12.044;2023-03-23T09:22:50;98830.00;;;10.41;100.00
19797;BME280;10058;57.654;12.044;2023-03-23T09:25:16;98838.81;;;10.46;100.00
19797;BME280;10058;57.654;12.044;2023-03-23T09:27:44;98841.47;;;10.28;100.00
19797;BME280;10058;57.654;12.044;2023-03-23T09:30:12;98852.06;;;10.19;100.00
19797;BME280;10058;57.654;12.044;2023-03-23T09:32:38;98846.75;;;10.36;100.00
19797;BME280;10058;57.654;12.044;2023-03-23T09:35:04;98839.66;;;10.52;100.00
19797;BME280;10058;57.654;12.044;2023-03-23T09:37:32;98835.22;;;10.69;100.00
19797;BME280;10058;57.654;12.044;2023-03-23T09:39:59;98822.84;;;10.74;100.00
19797;BME280;10058;57.654;12.044;2023-03-23T09:42:29;98826.41;;;10.58;100.00
19797;BME280;10058;57.654;12.044;2023-03-23T09:50:43;98834.44;;;10.23;100.00
19797;BME280;10058;57.654;12.044;2023-03-23T09:53:11;98838.88;;;9.92;100.00
19797;BME280;10058;57.654;12.044;2023-03-23T09:55:37;98839.75;;;9.92;100.00
19797;BME280;10058;57.654;12.044;2023-03-23T09:58:10;98850.31;;;9.86;100.00
19797;BME280;10058;57.654;12.044;2023-03-23T10:00:41;98867.00;;;9.96;100.00
19797;BME280;10058;57.654;12.044;2023-03-23T10:03:15;98854.69;;;9.73;100.00
19797;BME280;10058;57.654;12.044;2023-03-23T10:08:44;98858.22;;;9.91;100.00
19797;BME280;10058;57.654;12.044;2023-03-23T10:16:01;98838.00;;;10.03;100.00
19797;BME280;10058;57.654;12.044;2023-03-23T10:18:38;98832.72;;;9.99;100.00
19797;BME280;10058;57.654;12.044;2023-03-23T10:21:06;98837.09;;;9.94;100.00
19797;BME280;10058;57.654;12.044;2023-03-23T10:23:48;98836.22;;;9.99;100.00
19797;BME280;10058;57.654;12.044;2023-03-23T10:29:01;98831.84;;;9.78;100.00
19797;BME280;10058;57.654;12.044;2023-03-23T10:31:34;98840.63;;;9.99;100.00
19797;BME280;10058;57.654;12.044;2023-03-23T10:34:05;98896.94;;;10.01;100.00
19797;BME280;10058;57.654;12.044;2023-03-23T10:36:35;98893.41;;;9.99;100.00
19797;BME280;10058;57.654;12.044;2023-03-23T10:39:12;98889.88;;;10.15;100.00
19797;BME280;10058;57.654;12.044;2023-03-23T10:41:39;98886.34;;;9.89;100.00
19797;BME280;10058;57.654;12.044;2023-03-23T10:44:09;98889.88;;;10.15;100.00
19797;BME280;10058;57.654;12.044;2023-03-23T10:49:04;98878.44;;;10.11;100.00
19797;BME280;10058;57.654;12.044;2023-03-23T10:51:33;98888.09;;;10.08;100.00
19797;BME280;10058;57.654;12.044;2023-03-23T10:54:00;98877.56;;;10.11;100.00
19797;BME280;10058;57.654;12.044;2023-03-23T10:56:27;98879.31;;;10.23;100.00
19797;BME280;10058;57.654;12.044;2023-03-23T10:58:53;98869.66;;;10.25;100.00
19797;BME280;10058;57.654;12.044;2023-03-23T11:01:20;98861.72;;;10.23;100.00
19797;BME280;10058;57.654;12.044;2023-03-23T11:03:52;98863.44;;;10.39;100.00
19797;BME280;10058;57.654;12.044;2023-03-23T11:06:19;98861.69;;;10.48;100.00
19797;BME280;10058;57.654;12.044;2023-03-23T11:08:52;98858.19;;;10.33;100.00
19797;BME280;10058;57.654;12.044;2023-03-23T11:11:20;98858.22;;;10.30;100.00
19797;BME280;10058;57.654;12.044;2023-03-23T11:13:47;98852.88;;;10.49;100.00
19797;BME280;10058;57.654;12.044;2023-03-23T11:16:23;98843.19;;;10.48;100.00
19797;BME280;10058;57.654;12.044;2023-03-23T11:18:48;98833.44;;;10.65;100.00
19797;BME280;10058;57.654;12.044;2023-03-23T11:21:14;98826.41;;;10.67;100.00
19797;BME280;10058;57.654;12.044;2023-03-23T11:23:41;98828.28;;;10.37;100.00
19797;BME280;10058;57.654;12.044;2023-03-23T11:28:36;98828.31;;;10.21;100.00
19797;BME280;10058;57.654;12.044;2023-03-23T11:31:03;98840.59;;;10.34;100.00
19797;BME280;10058;57.654;12.044;2023-03-23T11:33:31;98835.31;;;10.17;100.00
19797;BME280;10058;57.654;12.044;2023-03-23T11:36:00;98835.31;;;10.23;100.00
19797;BME280;10058;57.654;12.044;2023-03-23T11:38:25;98835.34;;;9.94;100.00
19797;BME280;10058;57.654;12.044;2023-03-23T11:40:52;98848.56;;;9.85;100.00
19797;BME280;10058;57.654;12.044;2023-03-23T11:43:19;98849.44;;;10.04;100.00
19797;BME280;10058;57.654;12.044;2023-03-23T11:45:50;98844.13;;;10.16;100.00
19797;BME280;10058;57.654;12.044;2023-03-23T11:48:35;98839.72;;;10.07;100.00
19797;BME280;10058;57.654;12.044;2023-03-23T11:53:41;98852.94;;;9.97;100.00
19797;BME280;10058;57.654;12.044;2023-03-23T11:56:11;98848.53;;;10.02;100.00
19797;BME280;10058;57.654;12.044;2023-03-23T11:58:37;98848.53;;;10.16;100.00
19797;BME280;10058;57.654;12.044;2023-03-23T12:01:05;98846.75;;;10.11;100.00
19797;BME280;10058;57.654;12.044;2023-03-23T12:06:03;98856.44;;;10.05;100.00
19797;BME280;10058;57.654;12.044;2023-03-23T12:10:58;98867.00;;;9.97;100.00
19797;BME280;10058;57.654;12.044;2023-03-23T12:13:39;98868.75;;;9.88;100.00
19797;BME280;10058;57.654;12.044;2023-03-23T12:26:28;98863.50;;;9.91;100.00
19797;BME280;10058;57.654;12.044;2023-03-23T12:39:45;98880.19;;;9.59;100.00
19797;BME280;10058;57.654;12.044;2023-03-23T12:44:44;98877.53;;;9.44;100.00
19797;BME280;10058;57.654;12.044;2023-03-23T12:52:50;98886.31;;;9.34;100.00
19797;BME280;10058;57.654;12.044;2023-03-23T12:55:21;98890.63;;;9.18;100.00
19797;BME280;10058;57.654;12.044;2023-03-23T12:57:54;98895.97;;;9.39;100.00
19797;BME280;10058;57.654;12.044;2023-03-23T13:00:25;98900.34;;;9.27;100.00
19797;BME280;10058;57.654;12.044;2023-03-23T13:05:28;98921.47;;;9.33;100.00
19797;BME280;10058;57.654;12.044;2023-03-23T13:08:06;98928.44;;;9.23;100.00
19797;BME280;10058;57.654;12.044;2023-03-23T13:10:41;98935.47;;;9.23;100.00
19797;BME280;10058;57.654;12.044;2023-03-23T13:13:10;98938.97;;;9.22;100.00
19797;BME280;10058;57.654;12.044;2023-03-23T13:15:46;98960.03;;;9.19;100.00
19797;BME280;10058;57.654;12.044;2023-03-23T13:18:17;98961.81;;;9.15;100.00
19797;BME280;10058;57.654;12.044;2023-03-23T13:20:53;98958.38;;;9.33;100.00
19797;BME280;10058;57.654;12.044;2023-03-23T13:28:30;98972.41;;;9.29;100.00
19797;BME280;10058;57.654;12.044;2023-03-23T13:31:04;98981.16;;;9.25;100.00
19797;BME280;10058;57.654;12.044;2023-03-23T13:33:36;98989.94;;;9.18;100.00
19797;BME280;10058;57.654;12.044;2023-03-23T13:36:08;98991.78;;;9.43;100.00
19797;BME280;10058;57.654;12.044;2023-03-23T13:38:34;98988.28;;;9.44;100.00
19797;BME280;10058;57.654;12.044;2023-03-23T13:41:05;98990.00;;;9.30;100.00
19797;BME280;10058;57.654;12.044;2023-03-23T13:43:33;99001.50;;;9.49;100.00
19797;BME280;10058;57.654;12.044;2023-03-23T13:48:43;99011.06;;;9.27;100.00
19797;BME280;10058;57.654;12.044;2023-03-23T13:54:13;99019.94;;;9.47;100.00
19797;BME280;10058;57.654;12.044;2023-03-23T13:56:52;99025.22;;;9.56;100.00
19797;BME280;10058;57.654;12.044;2023-03-23T13:59:35;99009.47;;;9.77;100.00
19797;BME280;10058;57.654;12.044;2023-03-23T14:05:28;98991.91;;;9.80;100.00
19797;BME280;10058;57.654;12.044;2023-03-23T14:10:24;98986.59;;;9.67;100.00
19797;BME280;10058;57.654;12.044;2023-03-23T14:12:50;98988.38;;;9.77;100.00
19797;BME280;10058;57.654;12.044;2023-03-23T14:15:17;98995.38;;;9.71;100.00
19797;BME280;10058;57.654;12.044;2023-03-23T14:17:43;99004.19;;;9.68;100.00
19797;BME280;10058;57.654;12.044;2023-03-23T14:20:09;99004.19;;;9.68;100.00
19797;BME280;10058;57.654;12.044;2023-03-23T14:22:42;99004.13;;;9.56;100.00
19797;BME280;10058;57.654;12.044;2023-03-23T14:27:35;98967.09;;;11.30;100.00
19797;BME280;10058;57.654;12.044;2023-03-23T14:30:02;98909.81;;;11.26;100.00
19797;BME280;10058;57.654;12.044;2023-03-23T14:32:28;98893.16;;;11.11;100.00
19797;BME280;10058;57.654;12.044;2023-03-23T14:34:54;98907.28;;;11.07;100.00
19797;BME280;10058;57.654;12.044;2023-03-23T14:37:20;98897.63;;;10.97;100.00
19797;BME280;10058;57.654;12.044;2023-03-23T14:39:47;98901.25;;;10.72;100.00
19797;BME280;10058;57.654;12.044;2023-03-23T14:42:13;98903.81;;;10.93;100.00
19797;BME280;10058;57.654;12.044;2023-03-23T14:44:49;98903.72;;;11.14;100.00
19797;BME280;10058;57.654;12.044;2023-03-23T14:47:22;98901.84;;;11.41;100.00
19797;BME280;10058;57.654;12.044;2023-03-23T14:49:52;98890.38;;;11.40;100.00
19797;BME280;10058;57.654;12.044;2023-03-23T14:52:18;98891.19;;;11.47;100.00
19797;BME280;10058;57.654;12.044;2023-03-23T14:54:44;98878.94;;;11.31;100.00
19797;BME280;10058;57.654;12.044;2023-03-23T14:57:19;98882.31;;;11.57;100.00
19797;BME280;10058;57.654;12.044;2023-03-23T14:59:50;98871.53;;;11.91;100.00
19797;BME280;10058;57.654;12.044;2023-03-23T15:02:18;98869.16;;;11.46;100.00
19797;BME280;10058;57.654;12.044;2023-03-23T15:04:46;98871.75;;;11.57;100.00
19797;BME280;10058;57.654;12.044;2023-03-23T15:07:13;98872.78;;;11.32;100.00
19797;BME280;10058;57.654;12.044;2023-03-23T15:09:40;98883.44;;;11.15;100.00
19797;BME280;10058;57.654;12.044;2023-03-23T15:12:09;98887.84;;;11.14;100.00
19797;BME280;10058;57.654;12.044;2023-03-23T15:14:44;98888.72;;;11.15;100.00
19797;BME280;10058;57.654;12.044;2023-03-23T15:20:29;98900.31;;;10.88;100.00
19797;BME280;10058;57.654;12.044;2023-03-23T15:22:55;98898.50;;;10.96;100.00
19797;BME280;10058;57.654;12.044;2023-03-23T15:25:21;98897.59;;;11.08;100.00
19797;BME280;10058;57.654;12.044;2023-03-23T15:27:51;98906.34;;;11.14;100.00
19797;BME280;10058;57.654;12.044;2023-03-23T15:32:47;98911.56;;;11.33;100.00
19797;BME280;10058;57.654;12.044;2023-03-23T15:35:16;98912.59;;;10.98;100.00
19797;BME280;10058;57.654;12.044;2023-03-23T15:37:47;98912.72;;;10.69;100.00
19797;BME280;10058;57.654;12.044;2023-03-23T15:40:16;98924.16;;;10.65;100.00
19797;BME280;10058;57.654;12.044;2023-03-23T15:42:42;98926.78;;;10.73;100.00
19797;BME280;10058;57.654;12.044;2023-03-23T15:50:08;98930.34;;;10.51;100.00
19797;BME280;10058;57.654;12.044;2023-03-23T15:52:34;98932.13;;;10.47;100.00
19797;BME280;10058;57.654;12.044;2023-03-23T15:54:59;98937.41;;;10.52;100.00
19797;BME280;10058;57.654;12.044;2023-03-23T15:57:25;98947.06;;;10.18;100.00